createdAt,value
2022-08-22T00:00:13.649Z,86.09
2022-08-22T00:02:43.199Z,80.83
2022-08-22T00:02:49.988Z,84.87
2022-08-22T00:02:52.695Z,83.26
2022-08-22T00:03:22.783Z,86.66
2022-08-22T00:06:11.201Z,86.64
2022-08-22T00:08:49.465Z,87.02
2022-08-22T00:11:29.599Z,86.87
2022-08-22T00:14:07.375Z,87.24
2022-08-22T00:16:45.227Z,87.20
2022-08-22T00:19:23.873Z,86.96
2022-08-22T00:22:02.133Z,86.66
2022-08-22T00:24:36.066Z,86.45
2022-08-22T00:27:11.764Z,86.79
2022-08-22T00:29:45.481Z,86.53
2022-08-22T00:32:20.593Z,86.64
2022-08-22T00:34:58.106Z,86.98
2022-08-22T00:37:36.317Z,87.42
2022-08-22T00:40:22.709Z,87.72
2022-08-22T00:43:30.893Z,87.31
2022-08-22T00:46:25.549Z,87.00
2022-08-22T00:49:12.345Z,87.18
2022-08-22T00:52:18.894Z,86.93
2022-08-22T00:55:05.227Z,87.27
2022-08-22T00:57:50.029Z,87.39
2022-08-22T01:00:22.994Z,87.19
2022-08-22T01:03:28.650Z,87.18
2022-08-22T01:06:17.178Z,87.06
2022-08-22T01:09:02.257Z,87.27
2022-08-22T01:12:13.820Z,87.04
2022-08-22T01:14:48.745Z,87.38
2022-08-22T01:17:46.571Z,87.33
2022-08-22T01:20:55.388Z,87.41
2022-08-22T01:24:02.849Z,87.74
2022-08-22T01:27:02.889Z,87.54
2022-08-22T01:30:04.773Z,87.62
2022-08-22T01:33:13.738Z,87.95
2022-08-22T01:36:09.067Z,87.52
2022-08-22T01:39:04.158Z,87.52
2022-08-22T01:42:07.056Z,87.63
2022-08-22T01:45:18.032Z,87.55
2022-08-22T01:47:54.351Z,87.65
2022-08-22T01:50:28.397Z,87.83
2022-08-22T01:53:06.920Z,87.79
2022-08-22T01:55:44.761Z,87.54
2022-08-22T01:58:24.194Z,87.66
2022-08-22T02:01:09.899Z,87.71
2022-08-22T02:03:52.354Z,87.61
2022-08-22T02:06:33.258Z,87.67
2022-08-22T02:09:10.490Z,87.65
2022-08-22T02:11:47.848Z,87.71
2022-08-22T02:14:34.210Z,87.74
2022-08-22T02:17:17.004Z,87.62
2022-08-22T02:19:57.385Z,87.61
2022-08-22T02:22:44.608Z,87.55
2022-08-22T02:25:22.777Z,87.72
2022-08-22T02:27:58.710Z,87.48
2022-08-22T02:30:44.340Z,87.44
2022-08-22T02:33:25.804Z,87.49
2022-08-22T02:36:01.144Z,87.61
2022-08-22T02:38:38.483Z,87.59
2022-08-22T02:41:18.086Z,87.61
2022-08-22T02:43:59.621Z,87.68
2022-08-22T02:46:41.116Z,87.54
2022-08-22T02:49:18.892Z,87.46
2022-08-22T02:51:54.756Z,87.48
2022-08-22T02:54:31.552Z,87.28
2022-08-22T02:57:14.081Z,87.36
2022-08-22T03:00:32.526Z,87.37
2022-08-22T03:03:16.170Z,87.48
2022-08-22T03:06:01.289Z,87.46
2022-08-22T03:08:34.456Z,87.54
2022-08-22T03:11:19.447Z,87.62
2022-08-22T03:13:57.189Z,87.62
2022-08-22T03:16:35.112Z,87.54
2022-08-22T03:19:13.225Z,87.26
2022-08-22T03:21:59.423Z,87.59
2022-08-22T03:24:36.367Z,87.51
2022-08-22T03:27:12.980Z,87.46
2022-08-22T03:29:49.275Z,87.56
2022-08-22T03:32:21.958Z,87.44
2022-08-22T03:35:03.058Z,87.37
2022-08-22T03:37:43.359Z,87.75
2022-08-22T03:40:31.837Z,87.96
2022-08-22T03:43:22.562Z,88.01
2022-08-22T03:46:28.161Z,87.73
2022-08-22T03:49:26.570Z,87.34
2022-08-22T03:52:23.124Z,87.35
2022-08-22T03:55:18.856Z,87.78
2022-08-22T03:58:17.153Z,87.63
2022-08-22T04:01:40.022Z,87.78
2022-08-22T04:04:58.216Z,87.37
2022-08-22T04:07:46.789Z,87.33
2022-08-22T04:11:02.519Z,87.59
2022-08-22T04:14:00.754Z,87.63
2022-08-22T04:16:58.227Z,87.93
2022-08-22T04:19:54.546Z,87.88
2022-08-22T04:22:51.139Z,87.97
2022-08-22T04:25:24.381Z,88.06
2022-08-22T04:28:02.294Z,87.83
2022-08-22T04:30:38.707Z,88.08
2022-08-22T04:33:16.386Z,88.14
2022-08-22T04:35:56.136Z,88.21
2022-08-22T04:38:32.506Z,88.05
2022-08-22T04:41:08.913Z,87.98
2022-08-22T04:43:44.885Z,88.12
2022-08-22T04:46:21.049Z,88.29
2022-08-22T04:49:00.295Z,88.08
2022-08-22T04:51:39.771Z,87.97
2022-08-22T04:54:32.130Z,87.97
2022-08-22T04:57:15.627Z,88.19
2022-08-22T04:59:45.787Z,88.23
2022-08-22T05:02:23.318Z,88.25
2022-08-22T05:05:01.699Z,87.92
2022-08-22T05:07:36.378Z,88.06
2022-08-22T05:10:12.181Z,87.93
2022-08-22T05:12:47.898Z,87.95
2022-08-22T05:15:23.096Z,87.86
2022-08-22T05:17:56.937Z,87.83
2022-08-22T05:20:30.232Z,87.65
2022-08-22T05:23:06.309Z,87.73
2022-08-22T05:25:49.697Z,87.83
2022-08-22T05:28:27.830Z,87.86
2022-08-22T05:30:58.680Z,88.04
2022-08-22T05:33:32.032Z,87.97
2022-08-22T05:36:07.575Z,88.08
2022-08-22T05:38:42.238Z,88.29
2022-08-22T05:41:20.161Z,88.13
2022-08-22T05:43:51.303Z,88.29
2022-08-22T05:46:27.065Z,88.20
2022-08-22T05:49:01.963Z,88.16
2022-08-22T05:51:47.807Z,88.22
2022-08-22T05:54:21.757Z,88.46
2022-08-22T05:57:11.053Z,88.62
2022-08-22T05:59:44.370Z,88.64
2022-08-22T06:02:21.944Z,88.71
2022-08-22T06:04:55.377Z,88.75
2022-08-22T06:07:34.571Z,88.80
2022-08-22T06:10:24.764Z,88.86
2022-08-22T06:13:01.980Z,88.87
2022-08-22T06:15:36.183Z,88.98
2022-08-22T06:18:11.513Z,89.05
2022-08-22T06:20:45.292Z,89.04
2022-08-22T06:23:22.483Z,89.08
2022-08-22T06:25:53.333Z,89.18
2022-08-22T06:28:26.704Z,89.18
2022-08-22T06:30:57.444Z,89.28
2022-08-22T06:33:29.834Z,89.18
2022-08-22T06:36:21.471Z,89.33
2022-08-22T06:39:02.582Z,89.38
2022-08-22T06:41:35.637Z,89.70
2022-08-22T06:44:08.242Z,89.76
2022-08-22T06:46:40.355Z,89.75
2022-08-22T06:49:11.391Z,89.69
2022-08-22T06:51:41.895Z,89.82
2022-08-22T06:54:19.746Z,89.86
2022-08-22T06:56:52.535Z,89.80
2022-08-22T06:59:27.244Z,89.78
2022-08-22T07:02:02.770Z,89.86
2022-08-22T07:04:33.024Z,89.98
2022-08-22T07:07:03.070Z,89.84
2022-08-22T07:09:38.290Z,89.87
2022-08-22T07:12:18.371Z,89.73
2022-08-22T07:14:52.147Z,89.64
2022-08-22T07:17:25.449Z,89.79
2022-08-22T07:20:00.542Z,89.79
2022-08-22T07:22:33.624Z,89.83
2022-08-22T07:25:10.606Z,89.68
2022-08-22T07:27:55.531Z,89.78
2022-08-22T07:30:30.227Z,89.67
2022-08-22T07:33:26.159Z,89.60
2022-08-22T07:36:01.621Z,89.38
2022-08-22T07:38:42.971Z,89.24
2022-08-22T07:41:20.052Z,89.10
2022-08-22T07:43:54.121Z,88.89
2022-08-22T07:46:29.978Z,88.76
2022-08-22T07:49:09.596Z,88.77
2022-08-22T07:51:45.428Z,88.55
2022-08-22T07:54:21.747Z,88.72
2022-08-22T07:57:04.396Z,88.71
2022-08-22T07:59:37.132Z,88.58
2022-08-22T08:02:13.508Z,88.51
2022-08-22T08:04:43.901Z,88.02
2022-08-22T08:07:17.188Z,87.84
2022-08-22T08:09:51.186Z,87.87
2022-08-22T08:12:30.172Z,87.20
2022-08-22T08:15:01.391Z,87.00
2022-08-22T08:17:33.399Z,86.92
2022-08-22T08:20:09.366Z,86.81
2022-08-22T08:22:41.485Z,86.63
2022-08-22T08:25:14.409Z,86.22
2022-08-22T08:28:03.459Z,85.70
2022-08-22T08:30:40.460Z,85.38
2022-08-22T08:33:26.173Z,85.33
2022-08-22T08:36:03.937Z,85.31
2022-08-22T08:38:39.342Z,85.08
2022-08-22T08:41:38.840Z,85.06
2022-08-22T08:44:28.358Z,84.75
2022-08-22T08:47:17.509Z,84.51
2022-08-22T08:50:16.368Z,84.79
2022-08-22T08:53:21.864Z,84.37
2022-08-22T08:55:59.633Z,84.13
2022-08-22T08:58:51.732Z,84.03
2022-08-22T09:01:49.198Z,84.02
2022-08-22T09:04:39.158Z,83.66
2022-08-22T09:07:46.999Z,83.34
2022-08-22T09:10:36.221Z,83.14
2022-08-22T09:13:41.707Z,82.53
2022-08-22T09:16:29.650Z,82.34
2022-08-22T09:19:27.182Z,81.81
2022-08-22T09:22:50.611Z,81.32
2022-08-22T09:25:38.351Z,81.48
2022-08-22T09:28:17.869Z,81.12
2022-08-22T09:31:33.019Z,81.12
2022-08-22T09:34:13.709Z,81.07
2022-08-22T09:37:14.001Z,81.07
2022-08-22T09:39:58.705Z,80.80
2022-08-22T09:42:39.833Z,80.69
2022-08-22T09:45:43.152Z,80.39
2022-08-22T09:48:48.075Z,79.90
2022-08-22T09:51:31.681Z,79.99
2022-08-22T09:54:18.788Z,79.85
2022-08-22T09:57:15.739Z,79.83
2022-08-22T10:00:13.631Z,79.91
2022-08-22T10:02:53.653Z,79.07
2022-08-22T10:05:39.503Z,79.17
2022-08-22T10:08:27.623Z,78.67
2022-08-22T10:11:08.653Z,78.58
2022-08-22T10:13:52.884Z,79.02
2022-08-22T10:16:48.618Z,78.86
2022-08-22T10:19:26.408Z,78.72
2022-08-22T10:22:22.127Z,78.56
2022-08-22T10:25:09.077Z,79.06
2022-08-22T10:27:52.796Z,78.64
2022-08-22T10:30:27.939Z,78.21
2022-08-22T10:33:14.322Z,77.72
2022-08-22T10:35:57.998Z,77.11
2022-08-22T10:38:43.957Z,77.11
2022-08-22T10:41:30.735Z,76.81
2022-08-22T10:44:06.338Z,76.55
2022-08-22T10:46:42.259Z,76.31
2022-08-22T10:49:20.737Z,76.00
2022-08-22T10:52:06.509Z,75.64
2022-08-22T10:54:53.896Z,75.94
2022-08-22T10:57:39.973Z,75.80
2022-08-22T11:00:16.904Z,75.71
2022-08-22T11:03:00.963Z,75.50
2022-08-22T11:05:40.415Z,75.46
2022-08-22T11:08:43.739Z,75.57
2022-08-22T11:11:39.030Z,75.64
2022-08-22T11:14:36.193Z,74.54
2022-08-22T11:17:27.557Z,74.60
2022-08-22T11:20:13.678Z,74.90
2022-08-22T11:22:55.537Z,74.78
2022-08-22T11:25:41.410Z,74.52
2022-08-22T11:28:48.799Z,74.27
2022-08-22T11:31:25.050Z,74.45
2022-08-22T11:34:00.849Z,73.41
2022-08-22T11:36:40.229Z,72.88
2022-08-22T11:39:22.056Z,72.99
2022-08-22T11:41:59.992Z,72.43
2022-08-22T11:44:34.487Z,72.00
2022-08-22T11:47:12.925Z,71.65
2022-08-22T11:49:57.446Z,71.66
2022-08-22T11:52:59.214Z,71.19
2022-08-22T11:56:15.058Z,71.39
2022-08-22T11:59:00.520Z,71.46
2022-08-22T12:01:39.116Z,70.86
2022-08-22T12:04:21.327Z,71.02
2022-08-22T12:07:00.083Z,71.13
2022-08-22T12:09:44.213Z,71.32
2022-08-22T12:12:32.768Z,71.54
2022-08-22T12:15:11.013Z,71.35
2022-08-22T12:18:21.412Z,71.86
2022-08-22T12:21:23.930Z,71.88
2022-08-22T12:24:24.867Z,71.53
2022-08-22T12:27:28.556Z,71.42
2022-08-22T12:30:13.204Z,71.71
2022-08-22T12:33:23.153Z,71.52
2022-08-22T12:36:18.365Z,71.66
2022-08-22T12:39:43.941Z,71.69
2022-08-22T12:42:31.926Z,71.80
2022-08-22T12:48:01.912Z,72.47
2022-08-22T12:51:19.390Z,72.60
2022-08-22T12:54:55.049Z,73.04
2022-08-22T12:57:39.009Z,72.76
2022-08-22T13:00:29.584Z,73.02
2022-08-22T13:03:04.659Z,73.08
2022-08-22T13:05:40.656Z,73.32
2022-08-22T13:08:21.950Z,73.18
2022-08-22T13:11:10.013Z,73.09
2022-08-22T13:13:56.592Z,73.07
2022-08-22T13:16:49.053Z,72.43
2022-08-22T13:19:39.631Z,71.48
2022-08-22T13:22:14.995Z,71.47
2022-08-22T13:24:52.658Z,70.64
2022-08-22T13:27:30.691Z,70.38
2022-08-22T13:30:12.380Z,70.43
2022-08-22T13:32:46.897Z,69.90
2022-08-22T13:35:25.601Z,69.64
2022-08-22T13:38:05.002Z,69.72
2022-08-22T13:40:37.170Z,69.28
2022-08-22T13:43:11.306Z,69.13
2022-08-22T13:45:44.087Z,69.20
2022-08-22T13:48:16.718Z,68.79
2022-08-22T13:51:06.123Z,68.50
2022-08-22T13:53:46.392Z,68.53
2022-08-22T13:56:31.359Z,68.29
2022-08-22T13:59:06.032Z,67.58
2022-08-22T14:01:53.061Z,67.72
2022-08-22T14:04:36.007Z,68.19
2022-08-22T14:07:25.516Z,67.67
2022-08-22T14:10:06.246Z,67.98
2022-08-22T14:13:41.734Z,67.82
2022-08-22T14:16:20.739Z,67.78
2022-08-22T14:18:54.918Z,68.10
2022-08-22T14:21:41.199Z,67.90
2022-08-22T14:24:18.963Z,68.31
2022-08-22T14:26:59.632Z,68.45
2022-08-22T14:29:45.793Z,68.21
2022-08-22T14:32:43.319Z,68.49
2022-08-22T14:35:35.024Z,68.93
2022-08-22T14:38:27.565Z,68.50
2022-08-22T14:41:06.061Z,68.88
2022-08-22T14:43:49.386Z,68.95
2022-08-22T14:46:26.587Z,69.17
2022-08-22T14:49:29.401Z,69.10
2022-08-22T14:52:10.363Z,69.09
2022-08-22T14:54:50.983Z,69.52
2022-08-22T14:57:21.848Z,69.72
2022-08-22T14:59:53.703Z,69.82
2022-08-22T15:02:29.787Z,69.62
2022-08-22T15:05:12.574Z,69.75
2022-08-22T15:07:42.800Z,70.14
2022-08-22T15:10:25.555Z,70.00
2022-08-22T15:12:58.742Z,70.25
2022-08-22T15:15:41.181Z,70.34
2022-08-22T15:18:33.773Z,70.09
2022-08-22T15:21:08.636Z,70.23
2022-08-22T15:23:46.819Z,69.94
2022-08-22T15:26:28.093Z,70.40
2022-08-22T15:29:25.607Z,70.14
2022-08-22T15:32:01.409Z,70.57
2022-08-22T15:34:38.982Z,70.46
2022-08-22T15:37:35.176Z,70.79
2022-08-22T15:40:13.106Z,70.52
2022-08-22T15:42:54.369Z,70.87
2022-08-22T15:45:54.154Z,70.65
2022-08-22T15:48:37.064Z,70.62
2022-08-22T15:51:13.818Z,70.57
2022-08-22T15:54:25.260Z,70.40
2022-08-22T15:57:14.128Z,70.57
2022-08-22T15:59:54.746Z,70.65
2022-08-22T16:02:35.639Z,70.72
2022-08-22T16:05:23.145Z,70.87
2022-08-22T16:08:03.761Z,70.68
2022-08-22T16:10:39.279Z,70.96
2022-08-22T16:13:34.939Z,71.07
2022-08-22T16:16:11.173Z,70.92
2022-08-22T16:19:13.886Z,70.99
2022-08-22T16:22:12.148Z,70.74
2022-08-22T16:25:03.526Z,71.03
2022-08-22T16:27:35.023Z,70.90
2022-08-22T16:30:17.053Z,71.05
2022-08-22T16:32:56.357Z,70.71
2022-08-22T16:36:22.949Z,70.60
2022-08-22T16:38:55.923Z,70.76
2022-08-22T16:41:40.287Z,71.14
2022-08-22T16:44:24.040Z,70.90
2022-08-22T16:46:56.622Z,71.13
2022-08-22T16:49:30.610Z,71.09
2022-08-22T16:52:37.180Z,71.58
2022-08-22T16:55:28.620Z,71.50
2022-08-22T16:58:06.982Z,71.56
2022-08-22T17:00:57.556Z,71.34
2022-08-22T17:03:38.895Z,71.74
2022-08-22T17:06:36.363Z,71.76
2022-08-22T17:09:31.122Z,71.97
2022-08-22T17:12:13.189Z,71.90
2022-08-22T17:14:55.122Z,71.87
2022-08-22T17:17:37.072Z,71.54
2022-08-22T17:20:29.649Z,71.81
2022-08-22T17:23:10.565Z,71.62
2022-08-22T17:25:58.783Z,71.76
2022-08-22T17:28:38.642Z,71.98
2022-08-22T17:31:18.206Z,72.12
2022-08-22T17:34:09.889Z,71.88
2022-08-22T17:36:53.810Z,72.35
2022-08-22T17:39:38.496Z,72.06
2022-08-22T17:42:21.396Z,72.32
2022-08-22T17:45:01.002Z,72.38
2022-08-22T17:47:34.791Z,72.48
2022-08-22T17:50:21.964Z,72.65
2022-08-22T17:52:57.130Z,72.77
2022-08-22T17:55:32.553Z,72.76
2022-08-22T17:58:11.199Z,72.79
2022-08-22T18:00:49.424Z,72.90
2022-08-22T18:03:26.277Z,73.11
2022-08-22T18:06:06.108Z,73.00
2022-08-22T18:11:40.059Z,72.88
2022-08-22T18:14:22.297Z,72.97
2022-08-22T18:16:55.526Z,72.87
2022-08-22T18:19:41.145Z,72.93
2022-08-22T18:22:19.412Z,73.00
2022-08-22T18:24:54.810Z,73.00
2022-08-22T18:27:34.994Z,73.17
2022-08-22T18:30:16.363Z,73.12
2022-08-22T18:32:56.063Z,73.18
2022-08-22T18:35:28.979Z,73.42
2022-08-22T18:38:19.693Z,73.38
2022-08-22T18:40:55.621Z,73.48
2022-08-22T18:43:36.213Z,73.48
2022-08-22T18:46:21.932Z,73.39
2022-08-22T18:49:14.191Z,73.41
2022-08-22T18:51:41.697Z,73.92
2022-08-22T18:54:43.145Z,73.55
2022-08-22T18:57:32.325Z,73.86
2022-08-22T19:00:16.530Z,73.61
2022-08-22T19:03:14.993Z,73.71
2022-08-22T19:06:09.915Z,73.85
2022-08-22T19:08:54.706Z,73.86
2022-08-22T19:11:43.820Z,73.92
2022-08-22T19:14:27.914Z,74.02
2022-08-22T19:17:17.925Z,74.12
2022-08-22T19:20:15.657Z,74.04
2022-08-22T19:22:45.450Z,74.14
2022-08-22T19:25:26.893Z,74.35
2022-08-22T19:28:26.785Z,74.47
2022-08-22T19:31:22.753Z,74.40
2022-08-22T19:34:08.548Z,74.48
2022-08-22T19:36:38.110Z,74.56
2022-08-22T19:39:09.422Z,74.62
2022-08-22T19:41:52.452Z,74.58
2022-08-22T19:44:42.342Z,74.83
2022-08-22T19:47:30.943Z,74.96
2022-08-22T19:50:08.706Z,75.06
2022-08-22T19:52:56.269Z,75.09
2022-08-22T19:55:34.576Z,75.23
2022-08-22T19:58:13.182Z,75.23
2022-08-22T20:00:53.529Z,75.28
2022-08-22T20:03:37.502Z,75.43
2022-08-22T20:06:33.747Z,75.36
2022-08-22T20:09:18.582Z,75.48
2022-08-22T20:11:56.709Z,75.44
2022-08-22T20:14:30.886Z,75.48
2022-08-22T20:17:12.692Z,75.55
2022-08-22T20:22:47.116Z,75.71
2022-08-22T20:25:42.384Z,75.83
2022-08-22T20:28:26.545Z,76.00
2022-08-22T20:31:00.502Z,76.00
2022-08-22T20:33:35.003Z,76.31
2022-08-22T20:36:27.151Z,76.11
2022-08-22T20:39:01.193Z,76.24
2022-08-22T20:41:38.651Z,76.40
2022-08-22T20:44:15.960Z,76.43
2022-08-22T20:46:54.987Z,76.52
2022-08-22T20:49:29.507Z,76.44
2022-08-22T20:52:01.352Z,76.54
2022-08-22T20:54:33.474Z,76.44
2022-08-22T20:57:11.411Z,76.69
2022-08-22T20:59:43.062Z,76.74
2022-08-22T21:02:17.120Z,76.59
2022-08-22T21:05:00.099Z,76.83
2022-08-22T21:07:32.161Z,76.75
2022-08-22T21:10:25.442Z,76.85
2022-08-22T21:13:12.614Z,76.96
2022-08-22T21:15:45.790Z,77.05
2022-08-22T21:18:24.177Z,76.98
2022-08-22T21:21:05.126Z,77.01
2022-08-22T21:23:38.961Z,77.33
2022-08-22T21:26:10.425Z,77.06
2022-08-22T21:28:54.827Z,77.08
2022-08-22T21:31:26.240Z,76.98
2022-08-22T21:33:57.086Z,77.15
2022-08-22T21:36:31.695Z,77.18
2022-08-22T21:39:04.650Z,77.19
2022-08-22T21:41:39.328Z,77.13
2022-08-22T21:44:29.284Z,77.31
2022-08-22T21:47:14.371Z,77.38
2022-08-22T21:50:15.676Z,77.53
2022-08-22T21:53:02.313Z,77.19
2022-08-22T21:55:34.518Z,77.50
2022-08-22T21:58:07.750Z,77.40
2022-08-22T22:00:49.797Z,77.71
2022-08-22T22:03:21.122Z,77.65
2022-08-22T22:05:52.937Z,77.89
2022-08-22T22:08:23.773Z,77.68
2022-08-22T22:11:01.876Z,77.94
2022-08-22T22:13:31.974Z,77.77
2022-08-22T22:16:02.269Z,78.01
2022-08-22T22:18:32.368Z,78.01
2022-08-22T22:21:01.836Z,77.93
2022-08-22T22:23:32.926Z,77.97
2022-08-22T22:26:04.438Z,78.00
2022-08-22T22:28:37.929Z,78.08
2022-08-22T22:31:07.891Z,78.35
2022-08-22T22:33:39.970Z,78.19
2022-08-22T22:36:12.366Z,78.51
2022-08-22T22:38:43.341Z,78.46
2022-08-22T22:41:14.005Z,78.56
2022-08-22T22:43:45.004Z,78.65
2022-08-22T22:46:14.222Z,78.69
2022-08-22T22:48:43.438Z,78.72
2022-08-22T22:51:14.694Z,78.81
2022-08-22T22:53:45.814Z,78.68
2022-08-22T22:56:17.760Z,78.85
2022-08-22T22:58:50.815Z,78.98
2022-08-22T23:01:30.505Z,78.96
2022-08-22T23:04:03.245Z,79.24
2022-08-22T23:06:35.749Z,79.08
2022-08-22T23:09:06.425Z,79.36
2022-08-22T23:11:35.736Z,79.29
2022-08-22T23:14:05.183Z,79.33
2022-08-22T23:16:37.254Z,79.42
2022-08-22T23:19:10.510Z,79.58
2022-08-22T23:21:40.596Z,79.57
2022-08-22T23:24:11.992Z,79.52
2022-08-22T23:26:42.377Z,79.62
2022-08-22T23:29:12.302Z,79.54
2022-08-22T23:31:43.535Z,79.56
2022-08-22T23:34:15.134Z,79.45
2022-08-22T23:36:47.833Z,79.46
2022-08-22T23:39:21.054Z,79.36
2022-08-22T23:41:50.952Z,79.37
2022-08-22T23:44:23.150Z,79.44
2022-08-22T23:46:53.137Z,79.53
2022-08-22T23:49:22.981Z,79.38
2022-08-22T23:51:53.284Z,79.29
2022-08-22T23:54:24.350Z,79.38
2022-08-22T23:56:55.809Z,79.26
2022-08-22T23:59:30.063Z,79.32
